Terminal Aerodrome Forecast
Issued by NWS

Home | Current Version | Previous Version | Text Only | Print | Product List | Glossary On
Versions: 1 2 3 4 5 6 7 8 9 10 11 12 13 14 15 16 17
138
FTUS41 KBTV 032326
TAFSLK
TAF
KSLK 032326Z 0400/0424 08008KT P6SM SKC
     FM040200 VRB03KT P6SM OVC040
     FM041300 VRB03KT P6SM VCSH OVC015
     FM041600 12007KT P6SM VCSH OVC025=

USA.gov is the U.S. government's official web portal to all federal, state and local government web resources and services.